Tuesday, February 20, 2018, 10:27 AM EST
Back to Local

KBHB, Bar Harbor, Hancock County-bar Harbor Airport

Location: Ellsworth, ME, United States Lat: 44.45
Local Time: 10:27 AM EST (15:27 GMT) Lon: -68.367
Time Zone: US/Eastern Elev: 82 ft

Show me the last for .
Show Decoded

2018-02-20 09:56 METAR KBHB 201456Z AUTO 06006KT 10SM -RA OVC007 05/04 A3028 RMK AO2 CIG 004V010
                 SLP258 6//// T00500044 57001 PNO $ =
2018-02-20 09:20 METAR KBHB 201420Z AUTO 04003KT 7SM -RA FEW004 SCT030 OVC080 04/04 A3028 RMK AO2
                 PNO $ =
2018-02-20 08:56 METAR KBHB 201356Z AUTO 07004KT 10SM -RA BKN004 OVC030 04/04 A3029 RMK AO2
                 SLP260 T00440044 PNO $ =
2018-02-20 08:51 METAR KBHB 201351Z AUTO 06006KT 10SM -RA OVC004 04/04 A3028 RMK AO2 PNO $ =
2018-02-20 08:39 METAR KBHB 201339Z AUTO 05003KT 2SM -RA BR BKN004 OVC012 04/04 A3028 RMK AO2 CIG
                 002V007 PNO $ =
2018-02-20 08:32 METAR KBHB 201332Z AUTO VRB03KT 1SM -RA BR BKN004 OVC012 04/04 A3027 RMK AO2 VIS
                 1/2V3 CIG 002V008 RVRNO PNO $ =
2018-02-20 08:23 METAR KBHB 201323Z AUTO 04004KT 1/2SM -RA FG SCT006 OVC012 04/04 A3028 RMK AO2
                 RVRNO PNO $ =
2018-02-20 08:19 METAR KBHB 201319Z AUTO 02004KT 1SM -RA BR FEW006 OVC012 04/04 A3028 RMK AO2
                 RVRNO PNO $ =
2018-02-20 08:17 METAR KBHB 201317Z AUTO 01004KT 1 3/4SM -RA BR BKN012 OVC031 04/04 A3028 RMK AO2
                 PNO $ =
2018-02-20 08:15 METAR KBHB 201315Z AUTO 01004KT 4SM -RA BR BKN012 OVC031 04/04 A3028 RMK AO2 PNO
                 $ =
2018-02-20 07:56 METAR KBHB 201256Z AUTO 36004KT 10SM -RA FEW010 OVC031 04/04 A3029 RMK AO2
                 SLP260 T00440044 PNO $ =
2018-02-20 07:46 METAR KBHB 201246Z AUTO 36003KT 3SM -RA BR SCT010 OVC033 04/04 A3029 RMK AO2 PNO
                 $ =
2018-02-20 07:39 METAR KBHB 201239Z AUTO 00000KT 3/4SM -RA BR SCT010 OVC033 04/04 A3028 RMK AO2
                 RVRNO PNO $ =
2018-02-20 07:29 METAR KBHB 201229Z AUTO 00000KT 1/2SM -RA FG BKN010 OVC033 04/04 A3028 RMK AO2
                 RVRNO PNO $ =
2018-02-20 07:17 METAR KBHB 201217Z AUTO 00000KT 1/4SM -RA FG OVC033 04/04 A3027 RMK AO2 RVRNO
                 PNO $ =
2018-02-20 07:06 METAR KBHB 201206Z AUTO 00000KT 3/4SM -RA BR OVC033 04/04 A3027 RMK AO2 RVRNO
                 PNO $ =
2018-02-20 06:56 METAR KBHB 201156Z AUTO 00000KT 1/4SM -RA FG SCT003 OVC033 04/04 A3026 RMK AO2
                 RAE25B56 SLP251 6//// 7//// T00390039 10056 20033 51012 RVRNO PNO $ =
2018-02-20 06:51 METAR KBHB 201151Z AUTO 19003KT 1/2SM FG SCT003 OVC033 04/04 A3026 RMK AO2 VIS
                 1/4V3 RAE25 RVRNO PNO $ =
2018-02-20 06:49 METAR KBHB 201149Z AUTO 00000KT 1SM BR SCT003 OVC033 04/04 A3026 RMK AO2 VIS
                 1/2V5 RAE25 RVRNO PNO $ =
2018-02-20 06:46 METAR KBHB 201146Z AUTO 00000KT 2 1/2SM BR SCT003 OVC033 04/04 A3026 RMK AO2 VIS
                 3/4V5 RAE25 PNO $ =
2018-02-20 06:42 METAR KBHB 201142Z AUTO 00000KT 3SM BR BKN003 OVC033 04/04 A3026 RMK AO2 RAE25
                 PNO $ =
2018-02-20 06:26 METAR KBHB 201126Z AUTO 00000KT 1 1/4SM BR BKN003 OVC033 04/04 A3025 RMK AO2 VIS
                 3/4V4 RAE25 PNO $ =
2018-02-20 06:22 METAR KBHB 201122Z AUTO 00000KT 3/4SM -RA BR SCT003 OVC033 04/03 A3026 RMK AO2
                 RVRNO PNO $ =
2018-02-20 06:17 METAR KBHB 201117Z AUTO 00000KT 1/2SM -RA FG SCT003 BKN007 OVC033 04/03 A3025
                 RMK AO2 RVRNO PNO $ =
2018-02-20 06:10 METAR KBHB 201110Z AUTO 00000KT 1/4SM -RA FG BKN003 BKN007 OVC033 04/04 A3025
                 RMK AO2 CIG 001V005 RVRNO PNO $ =
2018-02-20 05:56 METAR KBHB 201056Z AUTO 00000KT 1/2SM -RA FG OVC003 04/04 A3025 RMK AO2 SLP246
                 T00390039 RVRNO PNO $ =
2018-02-20 05:24 METAR KBHB 201024Z AUTO 02004KT 1/4SM -RA FG BKN003 OVC036 03/03 A3024 RMK AO2
                 RVRNO PNO $ =
2018-02-20 05:06 METAR KBHB 201006Z AUTO 00000KT 3/4SM -RA BR OVC003 04/04 A3025 RMK AO2 RVRNO
                 PNO $ =
2018-02-20 04:56 METAR KBHB 200956Z AUTO 33004KT 1/4SM -RA FG OVC003 03/03 A3025 RMK AO2 RAB20
                 PRESRR SLP248 T00330033 RVRNO PNO $ =
2018-02-20 04:09 METAR KBHB 200909Z AUTO 22005KT 1/4SM FG OVC003 04/04 A3024 RMK AO2 RVRNO PNO $
                 =
2018-02-20 03:56 METAR KBHB 200856Z AUTO 19004KT 1/2SM FG OVC003 04/04 A3023 RMK AO2 SLP240 6////
                 T00390039 58009 RVRNO PNO $ =
2018-02-20 03:53 METAR KBHB 200853Z AUTO 19004KT 3/4SM BR OVC003 04/04 A3023 RMK AO2 RVRNO PNO $
                 =
2018-02-20 03:43 METAR KBHB 200843Z AUTO 21004KT 1 1/4SM BR OVC003 04/04 A3024 RMK AO2 PNO $ =
2018-02-20 03:40 METAR KBHB 200840Z AUTO 22003KT 3/4SM BR OVC003 04/04 A3024 RMK AO2 RVRNO PNO $
                 =
2018-02-20 03:29 METAR KBHB 200829Z AUTO 20004KT 1/4SM FG OVC003 04/03 A3023 RMK AO2 RVRNO PNO $
                 =
2018-02-20 03:24 METAR KBHB 200824Z AUTO 18004KT 3/4SM BR OVC003 04/04 A3023 RMK AO2 RVRNO PNO $
                 =
2018-02-20 03:21 METAR KBHB 200821Z AUTO 18005KT 1 3/4SM BR OVC003 04/04 A3023 RMK AO2 PNO $ =
2018-02-20 02:56 METAR KBHB 200756Z AUTO 20005KT 7SM OVC003 04/04 A3024 RMK AO2 RAE42 SLP243
                 T00440039 PNO $ =
2018-02-20 02:45 METAR KBHB 200745Z AUTO 21005KT 3SM BR OVC003 04/04 A3024 RMK AO2 RAE42 PNO $ =
2018-02-20 02:34 METAR KBHB 200734Z AUTO 19006KT 1 3/4SM -RA BR OVC003 04/04 A3023 RMK AO2 PNO $
                 =
2018-02-20 01:56 METAR KBHB 200656Z AUTO 19004KT 7SM -RA OVC003 05/04 A3024 RMK AO2 SLP246
                 T00500044 PNO $ =
2018-02-20 00:56 METAR KBHB 200556Z AUTO 22007KT 10SM -RA OVC003 06/05 A3025 RMK AO2 RAB26 SLP248
                 6//// T00560050 10056 20044 58004 PNO $ =
2018-02-20 00:27 METAR KBHB 200527Z AUTO 22009KT 6SM -RA BR OVC003 06/05 A3024 RMK AO2 RAB26 PNO
                 $ =
2018-02-19 23:56 METAR KBHB 200456Z AUTO 23006KT 9SM OVC005 06/05 A3027 RMK AO2 SLP254 T00560050
                 PNO $ =
2018-02-19 22:56 METAR KBHB 200356Z AUTO 21010KT 10SM OVC005 06/05 A3026 RMK AO2 RAE39 SLP252
                 T00560050 PNO $ =
2018-02-19 22:35 METAR KBHB 200335Z AUTO 22011KT 8SM -RA OVC005 05/04 A3026 RMK AO2 PNO $ =
2018-02-19 21:56 METAR KBHB 200256Z AUTO 21011KT 7SM -RA BKN009 OVC032 05/04 A3026 RMK AO2 SLP253
                 6//// T00500039 56014 PNO $ =
2018-02-19 21:54 METAR KBHB 200254Z AUTO 21013KT 6SM -RA BR BKN009 OVC032 05/04 A3027 RMK AO2 CIG
                 007V012 PNO $ =
2018-02-19 21:22 METAR KBHB 200222Z AUTO 22012G19KT 7SM -RA BKN013 OVC039 05/04 A3028 RMK AO2 PNO
                 $ =
2018-02-19 20:56 METAR KBHB 200156Z AUTO 21012KT 10SM -RA OVC037 05/04 A3028 RMK AO2 RAB0059
                 SLP257 T00500039 PNO $ =
2018-02-19 19:56 METAR KBHB 200056Z AUTO 21013KT 10SM OVC043 05/03 A3031 RMK AO2 SLP267 T00500033
                 PNO $ =
2018-02-19 18:56 METAR KBHB 192356Z AUTO 21012KT 10SM OVC065 05/03 A3034 RMK AO2 SLP277 6////
                 T00500028 10050 20039 400501094 58015 PNO $ =
2018-02-19 17:56 METAR KBHB 192256Z AUTO 21015KT 10SM BKN110 04/02 A3035 RMK AO2 SLP283 T00440022
                 PNO $ =
2018-02-19 16:56 METAR KBHB 192156Z AUTO 21013KT 10SM FEW022 OVC120 04/02 A3038 RMK AO2 SLP291
                 T00390017 PNO $ =
2018-02-19 16:54 METAR KBHB 192154Z AUTO 21011KT 10SM FEW022 SCT031 OVC120 04/02 A3038 RMK AO2
                 PNO $ =
2018-02-19 16:28 METAR KBHB 192128Z AUTO 21012G18KT 10SM BKN022 BKN031 04/02 A3039 RMK AO2 PNO $
                 =
2018-02-19 15:56 METAR KBHB 192056Z AUTO 20014G21KT 10SM SCT024 04/01 A3038 RMK AO2 SLP293 6////
                 T00440011 56022 PNO $ =
2018-02-19 15:11 METAR KBHB 192011Z AUTO 20017G22KT 10SM BKN026 04/01 A3039 RMK AO2 PNO $ =
2018-02-19 14:56 METAR KBHB 191956Z AUTO 20018G23KT 10SM SCT028 04/01 A3039 RMK AO2 SLP296
                 T00440006 PNO $ =
2018-02-19 13:56 METAR KBHB 191856Z AUTO 20020G23KT 10SM CLR 05/00 A3041 RMK AO2 PK WND
                 20026/1834 SLP302 T00500000 PNO $ =
2018-02-19 12:56 METAR KBHB 191756Z AUTO 20017G23KT 10SM FEW021 04/01 A3045 RMK AO2 SLP315 6////
                 T00440006 10044 21089 58030 PNO $ =
2018-02-19 12:43 METAR KBHB 191743Z AUTO 20018KT 10SM FEW021 04/01 A3045 RMK AO2 PNO $ =
2018-02-19 12:29 METAR KBHB 191729Z AUTO 20017G24KT 10SM SCT021 BKN027 04/01 A3045 RMK AO2 PRESFR
                 PNO $ =
2018-02-19 11:56 METAR KBHB 191656Z AUTO 20013KT 10SM SCT025 BKN032 04/00 A3050 RMK AO2 SLP331
                 T00390000 PNO $ =
2018-02-19 11:21 METAR KBHB 191621Z AUTO 20012KT 10SM BKN029 BKN035 04/M01 A3052 RMK AO2 PNO $ =
2018-02-19 10:56 METAR KBHB 191556Z AUTO 20012KT 10SM CLR 04/M01 A3054 RMK AO2 SLP346 T00391011
                 PNO $ =

Support USWX by starting your Amazon purchase here.